Terminal Aerodrome Forecast
Issued by NWS

Home | Current Version | Previous Version | Graphics & Text | Print | Product List | Glossary On
Versions: 1 2 3 4 5 6 7 8 9 10 11 12 13 14 15 16 17 18 19
000
FTUS43 KICT 160348 AAA
TAFHUT
TAF AMD
KHUT 160348Z 1604/1624 04008KT 5SM -RA BR OVC003
      TEMPO 1604/1608 1 1/2SM RA BR OVC002
     FM160900 04010KT 3SM -DZ BR OVC003
     FM161800 34012KT P6SM OVC003=

USA.gov is the U.S. government's official web portal to all federal, state and local government web resources and services.